createdAt,value
2023-03-13T00:06:42.921Z,474.00
2023-03-13T00:07:42.965Z,474.00
2023-03-13T00:08:43.020Z,475.00
2023-03-13T00:09:42.987Z,474.00
2023-03-13T00:10:43.029Z,474.00
2023-03-13T00:11:43.029Z,474.00
2023-03-13T00:12:43.078Z,472.00
2023-03-13T00:13:43.117Z,470.00
2023-03-13T00:14:43.130Z,468.00
2023-03-13T00:15:43.200Z,468.00
2023-03-13T00:16:43.276Z,467.00
2023-03-13T00:17:43.202Z,467.00
2023-03-13T00:18:43.199Z,465.00
2023-03-13T00:19:43.230Z,467.00
2023-03-13T00:20:43.275Z,468.00
2023-03-13T00:21:43.296Z,469.00
2023-03-13T00:22:43.291Z,470.00
2023-03-13T00:23:43.320Z,470.00
2023-03-13T00:24:43.333Z,469.00
2023-03-13T00:25:43.363Z,467.00
2023-03-13T00:26:43.357Z,466.00
2023-03-13T00:27:43.428Z,464.00
2023-03-13T00:28:45.111Z,466.00
2023-03-13T00:29:43.429Z,466.00
2023-03-13T00:30:43.535Z,466.00
2023-03-13T00:31:43.544Z,468.00
2023-03-13T00:32:43.584Z,467.00
2023-03-13T00:33:43.558Z,469.00
2023-03-13T00:34:43.613Z,468.00
2023-03-13T00:35:43.628Z,470.00
2023-03-13T00:36:43.637Z,470.00
2023-03-13T00:37:43.672Z,472.00
2023-03-13T00:38:43.727Z,473.00
2023-03-13T00:39:43.778Z,471.00
2023-03-13T00:40:43.824Z,470.00
2023-03-13T00:41:43.889Z,469.00
2023-03-13T00:42:43.943Z,467.00
2023-03-13T00:43:43.981Z,466.00
2023-03-13T00:44:44.000Z,464.00
2023-03-13T00:45:44.110Z,466.00
2023-03-13T00:46:44.093Z,468.00
2023-03-13T00:47:44.130Z,468.00
2023-03-13T00:48:44.301Z,466.00
2023-03-13T00:49:44.248Z,466.00
2023-03-13T00:50:44.294Z,463.00
2023-03-13T00:51:44.314Z,462.00
2023-03-13T00:52:44.347Z,464.00
2023-03-13T00:53:44.380Z,464.00
2023-03-13T00:54:44.426Z,465.00
2023-03-13T00:55:44.505Z,466.00
2023-03-13T00:56:44.541Z,467.00
2023-03-13T00:57:44.596Z,465.00
2023-03-13T00:58:44.627Z,466.00
2023-03-13T00:59:44.671Z,464.00
2023-03-13T01:00:44.662Z,464.00
2023-03-13T01:01:44.712Z,463.00
2023-03-13T01:02:44.901Z,461.00
2023-03-13T01:03:44.828Z,462.00
2023-03-13T01:04:44.848Z,464.00
2023-03-13T01:05:44.884Z,463.00
2023-03-13T01:06:44.960Z,462.00
2023-03-13T01:07:45.034Z,462.00
2023-03-13T01:08:45.043Z,463.00
2023-03-13T01:09:45.071Z,463.00
2023-03-13T01:10:45.122Z,463.00
2023-03-13T01:11:45.194Z,462.00
2023-03-13T01:12:45.238Z,463.00
2023-03-13T01:13:45.258Z,463.00
2023-03-13T01:14:45.309Z,461.00
2023-03-13T01:17:45.482Z,463.00
2023-03-13T01:21:45.630Z,466.00
2023-03-13T01:22:45.684Z,467.00
2023-03-13T01:23:45.693Z,465.00
2023-03-13T05:58:51.637Z,435.00
2023-03-13T05:59:51.672Z,438.00
2023-03-13T06:01:51.678Z,442.00
2023-03-13T06:02:51.669Z,444.00
2023-03-13T06:03:51.725Z,445.00
2023-03-13T07:14:51.667Z,1099.00
2023-03-13T07:24:51.740Z,1214.00
2023-03-13T07:28:51.681Z,1328.00
2023-03-13T07:29:52.176Z,1334.00
2023-03-13T07:30:51.702Z,1339.00
2023-03-13T07:31:51.799Z,1363.00
2023-03-13T07:32:51.921Z,1374.00
2023-03-13T07:33:51.773Z,1381.00
2023-03-13T07:34:51.814Z,1385.00
2023-03-13T07:35:51.833Z,1390.00
2023-03-13T07:36:51.836Z,1395.00
2023-03-13T07:37:51.797Z,1405.00
2023-03-13T07:38:51.819Z,1418.00
2023-03-13T07:39:51.858Z,1447.00
2023-03-13T07:40:51.863Z,1430.00
2023-03-13T07:41:51.877Z,1418.00
2023-03-13T07:42:51.911Z,1420.00
2023-03-13T07:43:51.936Z,1404.00
2023-03-13T07:44:52.163Z,1404.00
2023-03-13T07:45:52.028Z,1400.00
2023-03-13T07:46:52.028Z,1414.00
2023-03-13T07:47:52.017Z,1423.00
2023-03-13T07:48:52.027Z,1437.00
2023-03-13T07:49:52.186Z,1472.00
2023-03-13T07:50:52.072Z,1475.00
2023-03-13T07:51:52.128Z,1472.00
2023-03-13T07:52:52.244Z,1488.00
2023-03-13T07:53:52.142Z,1498.00
2023-03-13T07:54:52.262Z,1510.00
2023-03-13T07:55:52.199Z,1518.00
2023-03-13T07:56:52.560Z,1528.00
2023-03-13T07:57:52.545Z,1530.00
2023-03-13T07:58:52.289Z,1524.00
2023-03-13T07:59:52.226Z,1529.00
2023-03-13T08:00:52.247Z,1529.00
2023-03-13T08:01:52.299Z,1530.00
2023-03-13T08:02:52.250Z,1533.00
2023-03-13T08:03:52.322Z,1536.00
2023-03-13T08:04:52.262Z,1539.00
2023-03-13T08:05:52.318Z,1549.00
2023-03-13T08:06:52.348Z,1596.00
2023-03-13T08:07:52.343Z,1602.00
2023-03-13T08:08:52.366Z,1606.00
2023-03-13T08:09:52.364Z,1620.00
2023-03-13T08:10:52.690Z,1633.00
2023-03-13T08:11:52.417Z,1637.00
2023-03-13T08:12:52.424Z,1649.00
2023-03-13T08:13:52.442Z,1679.00
2023-03-13T08:14:52.429Z,1675.00
2023-03-13T08:15:52.690Z,1679.00
2023-03-13T08:16:52.556Z,1681.00
2023-03-13T08:17:52.535Z,1679.00
2023-03-13T08:18:52.497Z,1683.00
2023-03-13T08:19:52.548Z,1682.00
2023-03-13T08:20:52.486Z,1682.00
2023-03-13T08:21:52.563Z,1678.00
2023-03-13T08:22:52.522Z,1680.00
2023-03-13T08:23:52.543Z,1680.00
2023-03-13T08:24:52.534Z,1675.00
2023-03-13T08:25:52.544Z,1697.00
2023-03-13T08:26:52.549Z,1716.00
2023-03-13T08:27:52.567Z,1725.00
2023-03-13T08:28:52.583Z,1739.00
2023-03-13T08:29:52.571Z,1748.00
2023-03-13T08:30:52.729Z,1756.00
2023-03-13T08:31:52.629Z,1762.00
2023-03-13T08:32:52.664Z,1767.00
2023-03-13T08:33:52.669Z,1758.00
2023-03-13T08:34:52.651Z,1706.00
2023-03-13T08:35:52.703Z,1250.00
2023-03-13T08:36:52.687Z,1282.00
2023-03-13T08:37:52.693Z,1382.00
2023-03-13T08:38:52.701Z,1464.00
2023-03-13T08:39:52.654Z,1399.00
2023-03-13T08:40:52.711Z,1372.00
2023-03-13T08:41:52.670Z,1344.00
2023-03-13T08:42:52.655Z,1328.00
2023-03-13T08:43:52.665Z,1339.00
2023-03-13T08:44:52.686Z,1394.00
2023-03-13T08:45:52.736Z,1472.00
2023-03-13T08:46:52.669Z,1482.00
2023-03-13T08:47:52.719Z,1489.00
2023-03-13T08:48:52.757Z,1593.00
2023-03-13T08:49:52.776Z,1572.00
2023-03-13T08:50:53.204Z,1595.00
2023-03-13T08:51:52.761Z,1607.00
2023-03-13T08:52:52.750Z,1613.00
2023-03-13T08:53:52.802Z,1571.00
2023-03-13T08:54:52.786Z,1491.00
2023-03-13T08:55:52.851Z,1410.00
2023-03-13T08:56:52.856Z,1374.00
2023-03-13T08:57:52.957Z,1303.00
2023-03-13T08:58:53.039Z,1228.00
2023-03-13T08:59:52.915Z,1158.00
2023-03-13T09:00:53.181Z,1100.00
2023-03-13T09:01:52.900Z,1067.00
2023-03-13T09:02:53.071Z,1030.00
2023-03-13T09:03:53.049Z,1009.00
2023-03-13T09:04:52.992Z,999.00
2023-03-13T09:05:56.320Z,973.00
2023-03-13T09:06:52.937Z,961.00
2023-03-13T09:07:52.893Z,964.00
2023-03-13T09:08:52.987Z,1015.00
2023-03-13T09:09:52.919Z,1041.00
2023-03-13T09:10:52.818Z,1064.00
2023-03-13T09:11:52.765Z,1124.00
2023-03-13T09:12:52.807Z,1146.00
2023-03-13T09:13:52.743Z,1159.00
2023-03-13T09:14:52.725Z,1189.00
2023-03-13T09:15:52.710Z,1213.00
2023-03-13T09:16:52.653Z,1227.00
2023-03-13T09:17:52.653Z,1234.00
2023-03-13T09:18:52.791Z,1251.00
2023-03-13T09:20:00.158Z,1303.00
2023-03-13T09:20:53.545Z,1309.00
2023-03-13T09:21:52.514Z,1346.00
2023-03-13T09:22:52.454Z,1371.00
2023-03-13T09:23:52.443Z,1378.00
2023-03-13T09:24:52.405Z,1385.00
2023-03-13T09:25:52.374Z,1419.00
2023-03-13T09:27:01.038Z,1431.00
2023-03-13T09:27:53.370Z,1449.00
2023-03-13T09:28:52.440Z,1468.00
2023-03-13T09:29:52.235Z,1517.00
2023-03-13T09:30:52.757Z,1519.00
2023-03-13T09:31:52.176Z,1515.00
2023-03-13T09:32:52.254Z,1629.00
2023-03-13T09:33:52.133Z,1589.00
2023-03-13T09:34:52.067Z,1611.00
2023-03-13T09:35:52.278Z,1626.00
2023-03-13T09:36:52.046Z,1607.00
2023-03-13T09:37:51.986Z,1345.00
2023-03-13T09:38:52.024Z,967.00
2023-03-13T09:39:51.939Z,929.00
2023-03-13T09:41:05.352Z,1007.00
2023-03-13T09:41:52.911Z,1088.00
2023-03-13T09:42:51.865Z,1097.00
2023-03-13T09:43:51.861Z,657.00
2023-03-13T09:44:51.878Z,624.00
2023-03-13T09:45:52.244Z,544.00
2023-03-13T09:46:51.930Z,535.00
2023-03-13T09:47:51.833Z,537.00
2023-03-13T09:48:51.852Z,538.00
2023-03-13T09:49:51.865Z,535.00
2023-03-13T09:50:51.882Z,534.00
2023-03-13T09:51:52.234Z,583.00
2023-03-13T09:52:51.872Z,665.00
2023-03-13T09:53:51.903Z,680.00
2023-03-13T09:54:51.882Z,725.00
2023-03-13T09:55:51.904Z,752.00
2023-03-13T09:56:51.914Z,767.00
2023-03-13T09:57:51.905Z,788.00
2023-03-13T09:58:51.989Z,830.00
2023-03-13T10:00:51.975Z,925.00
2023-03-13T10:01:52.054Z,939.00
2023-03-13T10:02:52.119Z,946.00
2023-03-13T10:03:52.106Z,953.00
2023-03-13T10:04:52.206Z,962.00
2023-03-13T10:05:53.156Z,1014.00
2023-03-13T10:06:52.227Z,1034.00
2023-03-13T10:07:52.178Z,1060.00
2023-03-13T10:08:52.183Z,1071.00
2023-03-13T10:09:52.198Z,1085.00
2023-03-13T10:10:52.165Z,1106.00
2023-03-13T10:11:52.243Z,1115.00
2023-03-13T10:12:52.178Z,1154.00
2023-03-13T10:13:52.230Z,1172.00
2023-03-13T10:14:52.209Z,1185.00
2023-03-13T10:15:52.224Z,1204.00
2023-03-13T10:16:52.242Z,1320.00
2023-03-13T10:17:52.232Z,1339.00
2023-03-13T10:18:52.255Z,1342.00
2023-03-13T10:19:52.289Z,1350.00
2023-03-13T10:20:52.369Z,1347.00
2023-03-13T10:21:52.380Z,1369.00
2023-03-13T10:22:52.396Z,1378.00
2023-03-13T10:23:52.397Z,1382.00
2023-03-13T10:24:52.404Z,1383.00
2023-03-13T10:25:52.430Z,1390.00
2023-03-13T10:26:53.225Z,1397.00
2023-03-13T10:27:52.457Z,1404.00
2023-03-13T10:28:52.511Z,1417.00
2023-03-13T10:29:52.551Z,1429.00
2023-03-13T10:30:52.695Z,1452.00
2023-03-13T10:31:52.558Z,1459.00
2023-03-13T10:32:52.561Z,1547.00
2023-03-13T10:33:52.621Z,1532.00
2023-03-13T10:34:52.541Z,1562.00
2023-03-13T10:35:52.658Z,1601.00
2023-03-13T10:36:52.614Z,1618.00
2023-03-13T10:37:52.591Z,1631.00
2023-03-13T10:38:52.570Z,1637.00
2023-03-13T10:39:52.568Z,1647.00
2023-03-13T10:40:52.573Z,1662.00
2023-03-13T10:41:52.775Z,1705.00
2023-03-13T10:42:52.629Z,1703.00
2023-03-13T10:43:52.673Z,1403.00
2023-03-13T10:44:52.640Z,1143.00
2023-03-13T10:45:52.661Z,1010.00
2023-03-13T10:46:52.864Z,1281.00
2023-03-13T10:47:52.632Z,1315.00
2023-03-13T10:48:52.737Z,1233.00
2023-03-13T10:49:52.783Z,1226.00
2023-03-13T10:50:52.718Z,1218.00
2023-03-13T10:51:52.795Z,1219.00
2023-03-13T10:52:52.820Z,1284.00
2023-03-13T10:53:52.748Z,1261.00
2023-03-13T10:54:52.742Z,1250.00
2023-03-13T10:55:52.836Z,1247.00
2023-03-13T10:56:53.267Z,1248.00
2023-03-13T10:57:52.802Z,1241.00
2023-03-13T10:58:52.844Z,1240.00
2023-03-13T10:59:52.830Z,1232.00
2023-03-13T11:00:52.877Z,1235.00
2023-03-13T11:01:53.236Z,1299.00
2023-03-13T11:02:53.030Z,1279.00
2023-03-13T11:03:53.052Z,1258.00
2023-03-13T11:04:52.932Z,1229.00
2023-03-13T11:05:52.992Z,1247.00
2023-03-13T11:06:53.250Z,1242.00
2023-03-13T11:07:53.008Z,1246.00
2023-03-13T11:08:53.026Z,1252.00
2023-03-13T11:10:53.045Z,1244.00
2023-03-13T11:11:53.133Z,1243.00
2023-03-13T11:12:53.100Z,1232.00
2023-03-13T11:13:53.101Z,1225.00
2023-03-13T11:14:53.110Z,1225.00
2023-03-13T11:15:53.169Z,1222.00
2023-03-13T11:16:53.718Z,1223.00
2023-03-13T11:17:53.099Z,1219.00
2023-03-13T11:18:53.105Z,1199.00
2023-03-13T11:19:53.637Z,1190.00
2023-03-13T11:20:53.125Z,847.00
2023-03-13T11:21:53.151Z,945.00
2023-03-13T11:22:53.214Z,1054.00
2023-03-13T11:23:53.209Z,1071.00
2023-03-13T11:24:53.221Z,1065.00
2023-03-13T11:25:53.239Z,1058.00
2023-03-13T11:27:04.296Z,1063.00
2023-03-13T11:27:54.290Z,1072.00
2023-03-13T11:28:53.194Z,1077.00
2023-03-13T11:29:53.197Z,1090.00
2023-03-13T11:30:53.130Z,1099.00
2023-03-13T11:31:53.142Z,1102.00
2023-03-13T11:32:53.335Z,1106.00
2023-03-13T11:33:53.091Z,1102.00
2023-03-13T11:34:53.050Z,1096.00
2023-03-13T11:35:53.023Z,1104.00
2023-03-13T11:36:52.996Z,1108.00
2023-03-13T11:37:53.297Z,1046.00
2023-03-13T11:38:52.991Z,1059.00
2023-03-13T11:39:52.973Z,1066.00
2023-03-13T11:40:52.993Z,1127.00
2023-03-13T11:41:53.073Z,1130.00
2023-03-13T11:42:53.275Z,1220.00
2023-03-13T11:43:53.314Z,1257.00
2023-03-13T11:44:53.100Z,1240.00
2023-03-13T11:45:53.181Z,1199.00
2023-03-13T11:46:53.135Z,1192.00
2023-03-13T11:47:53.272Z,1187.00
2023-03-13T11:48:53.197Z,1190.00
2023-03-13T11:49:53.193Z,1189.00
2023-03-13T11:50:53.226Z,1187.00
2023-03-13T11:51:53.262Z,1183.00
2023-03-13T11:52:53.973Z,1180.00
2023-03-13T11:53:53.307Z,1175.00
2023-03-13T11:54:53.320Z,1171.00
2023-03-13T11:55:53.331Z,1169.00
2023-03-13T11:56:53.380Z,1159.00
2023-03-13T11:57:53.384Z,1155.00
2023-03-13T11:58:53.764Z,1149.00
2023-03-13T11:59:53.478Z,1143.00
2023-03-13T12:00:53.512Z,1132.00
2023-03-13T12:01:53.537Z,1128.00
2023-03-13T12:02:53.485Z,1121.00
2023-03-13T12:03:53.594Z,1117.00
2023-03-13T12:04:53.597Z,1114.00
2023-03-13T12:05:53.551Z,1107.00
2023-03-13T12:06:53.554Z,1104.00
2023-03-13T12:07:53.636Z,1103.00
2023-03-13T12:08:53.591Z,1096.00
2023-03-13T12:09:53.706Z,1095.00
2023-03-13T12:10:53.730Z,1089.00
2023-03-13T12:11:53.708Z,1086.00
2023-03-13T12:12:53.726Z,1080.00
2023-03-13T12:13:53.758Z,1073.00
2023-03-13T12:14:53.773Z,1068.00
2023-03-13T12:15:53.830Z,1061.00
2023-03-13T12:16:53.943Z,1053.00
2023-03-13T12:17:53.935Z,1050.00
2023-03-13T12:18:54.272Z,1050.00
2023-03-13T12:19:53.896Z,1051.00
2023-03-13T12:20:53.975Z,1047.00
2023-03-13T12:21:54.013Z,1045.00
2023-03-13T12:22:53.979Z,1043.00
2023-03-13T12:23:54.317Z,1045.00
2023-03-13T12:24:54.777Z,1044.00
2023-03-13T12:25:54.286Z,1043.00
2023-03-13T12:29:54.191Z,1038.00
2023-03-13T14:30:57.068Z,791.00
2023-03-13T14:31:57.029Z,810.00
2023-03-13T14:32:57.067Z,825.00
2023-03-13T14:33:57.086Z,843.00
2023-03-13T14:34:57.126Z,880.00
2023-03-13T14:35:57.129Z,907.00
2023-03-13T14:37:10.965Z,915.00
2023-03-13T14:38:57.095Z,991.00
2023-03-13T14:39:57.052Z,998.00
2023-03-13T14:40:57.051Z,1035.00
2023-03-13T14:41:56.999Z,1045.00
2023-03-13T14:42:56.963Z,1063.00
2023-03-13T14:43:56.943Z,1107.00
2023-03-13T14:44:59.626Z,1111.00
2023-03-13T14:45:56.915Z,1120.00
2023-03-13T14:46:56.947Z,1123.00
2023-03-13T14:47:56.875Z,1149.00
2023-03-13T14:48:56.878Z,1157.00
2023-03-13T14:49:56.809Z,1189.00
2023-03-13T14:51:08.882Z,1211.00
2023-03-13T14:51:57.800Z,1342.00
2023-03-13T14:52:56.723Z,1323.00
2023-03-13T14:53:56.727Z,1333.00
2023-03-13T14:54:56.713Z,1427.00
2023-03-13T14:55:56.663Z,1452.00
2023-03-13T14:56:56.654Z,1449.00
2023-03-13T14:57:56.621Z,1453.00
2023-03-13T14:58:56.588Z,1459.00
2023-03-13T14:59:56.563Z,1473.00
2023-03-13T15:00:56.566Z,1489.00
2023-03-13T15:01:56.511Z,1475.00
2023-03-13T15:02:56.491Z,1485.00
2023-03-13T15:03:56.566Z,1499.00
2023-03-13T15:04:56.531Z,1580.00
2023-03-13T15:05:56.526Z,1605.00
2023-03-13T15:06:56.500Z,1621.00
2023-03-13T15:07:56.537Z,1614.00
2023-03-13T15:08:56.538Z,1629.00
2023-03-13T15:09:56.531Z,1801.00
2023-03-13T15:10:56.568Z,1759.00
2023-03-13T15:11:56.548Z,1749.00
2023-03-13T15:12:56.622Z,1740.00
2023-03-13T15:13:56.560Z,1743.00
2023-03-13T15:14:56.549Z,1814.00
2023-03-13T15:15:56.645Z,1805.00
2023-03-13T15:16:56.615Z,1828.00
2023-03-13T15:17:56.571Z,1868.00
2023-03-13T15:18:56.578Z,1813.00
2023-03-13T15:19:56.607Z,1818.00
2023-03-13T15:20:56.599Z,1270.00
2023-03-13T15:21:56.642Z,1028.00
2023-03-13T15:22:56.650Z,1107.00
2023-03-13T15:23:56.689Z,1036.00
2023-03-13T15:25:05.976Z,1015.00
2023-03-13T15:25:57.710Z,1005.00
2023-03-13T15:26:56.679Z,916.00
2023-03-13T15:27:56.684Z,923.00
2023-03-13T15:28:56.676Z,929.00
2023-03-13T15:29:56.700Z,856.00
2023-03-13T15:30:56.664Z,860.00
2023-03-13T15:31:56.673Z,859.00
2023-03-13T15:32:56.702Z,779.00
2023-03-13T15:33:56.629Z,861.00
2023-03-13T15:34:56.609Z,870.00
2023-03-13T15:35:56.669Z,874.00
2023-03-13T15:36:56.588Z,881.00
2023-03-13T15:37:56.595Z,961.00
2023-03-13T15:38:56.543Z,994.00
2023-03-13T15:39:56.549Z,1017.00
2023-03-13T15:40:56.605Z,1030.00
2023-03-13T15:41:56.558Z,1092.00
2023-03-13T15:42:56.617Z,1107.00
2023-03-13T15:43:56.619Z,1113.00
2023-03-13T15:44:56.650Z,1139.00
2023-03-13T15:45:56.774Z,1148.00
2023-03-13T15:46:56.722Z,1173.00
2023-03-13T15:47:56.820Z,1171.00
2023-03-13T15:48:56.787Z,1184.00
2023-03-13T15:49:56.792Z,1243.00
2023-03-13T15:50:56.841Z,1267.00
2023-03-13T15:51:57.877Z,1279.00
2023-03-13T15:52:56.852Z,1288.00
2023-03-13T15:53:56.851Z,1285.00
2023-03-13T15:54:56.878Z,1306.00
2023-03-13T15:55:56.877Z,1330.00
2023-03-13T15:56:56.881Z,1343.00
2023-03-13T15:57:56.925Z,1349.00
2023-03-13T15:58:56.937Z,1369.00
2023-03-13T15:59:56.903Z,1397.00
2023-03-13T16:00:57.010Z,1448.00
2023-03-13T16:01:56.918Z,1463.00
2023-03-13T16:02:56.924Z,1474.00
2023-03-13T16:03:56.949Z,1476.00
2023-03-13T16:04:56.932Z,1473.00
2023-03-13T16:05:56.978Z,1496.00
2023-03-13T16:06:56.945Z,1566.00
2023-03-13T16:07:56.928Z,1436.00
2023-03-13T16:08:56.972Z,1114.00
2023-03-13T16:09:56.966Z,899.00
2023-03-13T16:10:57.015Z,911.00
2023-03-13T16:11:57.050Z,947.00
2023-03-13T16:12:57.058Z,948.00
2023-03-13T16:13:57.523Z,949.00
2023-03-13T16:14:57.123Z,956.00
2023-03-13T16:15:57.153Z,981.00
2023-03-13T16:16:57.268Z,1038.00
2023-03-13T16:17:57.204Z,1068.00
2023-03-13T16:18:57.228Z,1084.00
2023-03-13T16:19:57.268Z,1114.00
2023-03-13T16:20:57.297Z,1141.00
2023-03-13T16:21:57.314Z,1155.00
2023-03-13T16:22:57.345Z,1197.00
2023-03-13T16:23:57.330Z,1215.00
2023-03-13T16:24:57.380Z,1254.00
2023-03-13T16:25:57.404Z,1284.00
2023-03-13T16:26:57.391Z,1267.00
2023-03-13T16:27:57.411Z,1271.00
2023-03-13T16:28:57.465Z,1274.00
2023-03-13T16:29:57.452Z,1277.00
2023-03-13T16:30:57.933Z,1288.00
2023-03-13T16:31:57.467Z,1308.00
2023-03-13T16:32:57.575Z,1328.00
2023-03-13T16:33:57.480Z,1352.00
2023-03-13T16:34:57.480Z,1376.00
2023-03-13T16:35:57.600Z,1409.00
2023-03-13T16:36:57.544Z,1413.00
2023-03-13T16:38:57.530Z,1437.00
2023-03-13T16:39:57.565Z,1430.00
2023-03-13T16:40:57.575Z,1470.00
2023-03-13T16:41:57.569Z,1494.00
2023-03-13T16:42:57.553Z,1481.00
2023-03-13T16:43:57.600Z,1487.00
2023-03-13T16:44:57.596Z,1522.00
2023-03-13T16:45:57.678Z,1518.00
2023-03-13T16:47:05.693Z,1506.00
2023-03-13T16:47:58.563Z,1502.00
2023-03-13T16:48:57.580Z,1509.00
2023-03-13T16:49:57.500Z,1578.00
2023-03-13T16:50:57.535Z,1553.00
2023-03-13T16:51:57.489Z,1544.00
2023-03-13T16:52:57.449Z,1549.00
2023-03-13T16:53:57.444Z,1551.00
2023-03-13T16:54:57.412Z,1551.00
2023-03-13T16:55:57.428Z,1507.00
2023-03-13T16:56:57.370Z,1534.00
2023-03-13T16:57:57.390Z,1531.00
2023-03-13T16:58:57.327Z,1538.00
2023-03-13T16:59:57.310Z,1530.00
2023-03-13T17:01:05.395Z,1438.00
2023-03-13T17:01:58.220Z,1456.00
2023-03-13T17:02:57.235Z,1294.00
2023-03-13T17:03:57.275Z,1304.00
2023-03-13T17:04:57.187Z,1369.00
2023-03-13T17:05:57.180Z,1372.00
2023-03-13T17:06:57.152Z,1354.00
2023-03-13T17:07:57.119Z,1264.00
2023-03-13T17:08:57.120Z,1254.00
2023-03-13T17:09:57.108Z,1245.00
2023-03-13T17:10:57.122Z,1253.00
2023-03-13T17:11:57.074Z,1252.00
2023-03-13T17:12:57.074Z,1250.00
2023-03-13T17:13:57.009Z,1251.00
2023-03-13T17:14:57.005Z,1211.00
2023-03-13T17:15:57.104Z,1188.00
2023-03-13T17:16:56.978Z,1180.00
2023-03-13T17:18:57.040Z,1121.00
2023-03-13T17:19:57.522Z,1104.00
2023-03-13T17:20:57.116Z,1103.00
2023-03-13T17:21:57.134Z,1081.00
2023-03-13T17:22:57.191Z,1066.00
2023-03-13T17:23:57.209Z,1061.00
2023-03-13T17:24:57.215Z,1065.00
2023-03-13T17:25:57.279Z,1054.00
2023-03-13T17:26:57.299Z,1047.00
2023-03-13T17:27:57.340Z,1034.00
2023-03-13T17:28:57.402Z,1019.00
2023-03-13T17:29:57.407Z,994.00
2023-03-13T17:30:57.496Z,993.00
2023-03-13T17:31:57.498Z,983.00
2023-03-13T17:32:57.526Z,962.00
2023-03-13T17:33:57.582Z,964.00
2023-03-13T17:34:57.598Z,957.00
2023-03-13T17:35:57.654Z,926.00
2023-03-13T17:36:57.691Z,918.00
2023-03-13T17:37:57.674Z,911.00
2023-03-13T17:38:57.686Z,904.00
2023-03-13T17:39:57.730Z,884.00
2023-03-13T17:40:57.815Z,880.00
2023-03-13T17:41:57.798Z,877.00
2023-03-13T17:42:57.834Z,867.00
2023-03-13T17:43:57.831Z,862.00
2023-03-13T17:44:57.845Z,857.00
2023-03-13T17:45:57.864Z,857.00
2023-03-13T17:46:57.891Z,857.00
2023-03-13T17:47:57.906Z,851.00
2023-03-13T17:48:57.902Z,828.00
2023-03-13T17:49:57.905Z,821.00
2023-03-13T17:50:57.915Z,819.00
2023-03-13T17:51:57.957Z,807.00
2023-03-13T17:52:57.931Z,796.00
2023-03-13T17:53:57.946Z,787.00
2023-03-13T17:54:57.952Z,780.00
2023-03-13T17:55:57.990Z,776.00
2023-03-13T17:56:58.033Z,770.00
2023-03-13T17:57:58.023Z,754.00
2023-03-13T17:58:58.046Z,749.00
2023-03-13T17:59:58.051Z,745.00
2023-03-13T18:00:58.063Z,741.00
2023-03-13T18:10:58.135Z,695.00
2023-03-13T18:18:58.219Z,656.00
2023-03-13T18:19:58.250Z,653.00
2023-03-13T18:20:58.263Z,651.00
2023-03-13T18:21:58.244Z,649.00
2023-03-13T18:22:58.263Z,649.00
2023-03-13T18:23:58.299Z,648.00
2023-03-13T18:24:58.340Z,647.00
2023-03-13T18:25:58.337Z,645.00
2023-03-13T18:26:58.336Z,639.00
2023-03-13T20:35:01.666Z,469.00
2023-03-13T20:36:01.809Z,465.00
2023-03-13T20:37:01.730Z,467.00
2023-03-13T20:38:01.760Z,469.00
2023-03-13T20:39:01.833Z,467.00
2023-03-13T20:40:01.842Z,466.00
2023-03-13T20:41:01.902Z,465.00
2023-03-13T20:42:03.128Z,464.00
2023-03-13T20:43:01.976Z,464.00
2023-03-13T20:44:01.997Z,463.00
2023-03-13T20:45:02.055Z,464.00
2023-03-13T20:46:02.064Z,463.00
2023-03-13T20:47:02.114Z,463.00
2023-03-13T20:48:02.191Z,463.00
2023-03-13T20:49:02.214Z,463.00
2023-03-13T20:50:02.177Z,460.00
2023-03-13T20:51:02.298Z,460.00
2023-03-13T20:52:02.242Z,458.00
2023-03-13T20:53:02.307Z,459.00
2023-03-13T20:54:02.291Z,460.00
2023-03-13T20:55:02.353Z,460.00
2023-03-13T20:56:04.005Z,458.00
2023-03-13T20:57:02.355Z,455.00
2023-03-13T20:58:02.377Z,455.00
2023-03-13T20:59:02.324Z,453.00
2023-03-13T21:00:02.329Z,455.00
2023-03-13T21:01:02.303Z,456.00
2023-03-13T21:02:02.345Z,458.00
2023-03-13T21:03:02.431Z,458.00
2023-03-13T21:04:02.594Z,455.00
2023-03-13T21:05:02.510Z,457.00
2023-03-13T21:06:02.246Z,459.00
2023-03-13T21:07:02.226Z,459.00
2023-03-13T21:08:02.197Z,458.00
2023-03-13T21:09:02.198Z,452.00
2023-03-13T21:10:02.161Z,449.00
2023-03-13T21:11:02.171Z,448.00
2023-03-13T21:12:02.176Z,451.00
2023-03-13T21:13:02.186Z,451.00
2023-03-13T21:14:02.180Z,449.00
2023-03-13T21:15:03.069Z,448.00
2023-03-13T21:16:02.206Z,449.00
2023-03-13T21:17:02.148Z,451.00
2023-03-13T21:18:02.134Z,452.00
2023-03-13T21:19:02.162Z,452.00
2023-03-13T21:20:02.196Z,452.00
2023-03-13T21:21:02.249Z,450.00
2023-03-13T21:22:02.320Z,451.00
2023-03-13T21:23:02.347Z,451.00
2023-03-13T21:24:02.388Z,452.00
2023-03-13T21:25:02.444Z,452.00
2023-03-13T21:26:02.509Z,450.00
2023-03-13T21:27:02.513Z,450.00
2023-03-13T21:28:02.580Z,450.00
2023-03-13T21:29:02.595Z,451.00
2023-03-13T21:30:02.643Z,451.00
2023-03-13T21:31:02.706Z,453.00
2023-03-13T21:32:02.738Z,454.00
2023-03-13T21:33:02.766Z,452.00
2023-03-13T21:34:02.793Z,451.00
2023-03-13T21:35:02.828Z,450.00
2023-03-13T21:36:02.961Z,448.00
2023-03-13T21:37:02.902Z,449.00
2023-03-13T21:38:02.959Z,449.00
2023-03-13T21:39:02.993Z,447.00
2023-03-13T21:40:03.039Z,446.00
2023-03-13T21:41:03.115Z,444.00
2023-03-13T21:42:03.137Z,443.00
2023-03-13T21:43:03.204Z,445.00
2023-03-13T21:44:03.220Z,445.00
2023-03-13T21:45:03.262Z,447.00
2023-03-13T21:46:03.302Z,447.00
2023-03-13T21:47:03.390Z,447.00
2023-03-13T21:48:03.418Z,447.00
2023-03-13T21:49:03.424Z,445.00
2023-03-13T21:50:03.519Z,448.00
2023-03-13T21:51:03.520Z,448.00
2023-03-13T21:52:03.584Z,446.00
2023-03-13T21:53:03.592Z,446.00
2023-03-13T21:54:03.652Z,445.00
2023-03-13T21:55:03.719Z,446.00
2023-03-13T21:56:03.799Z,445.00
2023-03-13T21:57:03.786Z,445.00
2023-03-13T21:58:03.827Z,444.00
2023-03-13T21:59:03.842Z,443.00
2023-03-13T22:00:03.894Z,444.00
2023-03-13T22:01:04.014Z,445.00
2023-03-13T22:02:03.996Z,446.00
2023-03-13T22:03:04.092Z,446.00
2023-03-13T22:04:04.077Z,445.00
2023-03-13T22:05:04.111Z,444.00
2023-03-13T22:06:04.123Z,446.00
2023-03-13T22:07:04.186Z,448.00
2023-03-13T22:08:04.230Z,453.00
2023-03-13T22:09:04.430Z,453.00
2023-03-13T22:10:04.291Z,454.00
2023-03-13T22:11:04.362Z,453.00
2023-03-13T22:12:04.414Z,455.00
2023-03-13T22:13:04.415Z,454.00
2023-03-13T22:14:04.470Z,453.00
2023-03-13T22:15:04.489Z,451.00
2023-03-13T22:16:04.560Z,449.00
2023-03-13T22:17:04.607Z,451.00
2023-03-13T22:18:04.646Z,451.00
2023-03-13T22:19:04.691Z,449.00
2023-03-13T22:20:04.728Z,448.00
2023-03-13T22:21:04.790Z,449.00
2023-03-13T22:22:04.808Z,450.00
2023-03-13T22:23:04.864Z,448.00
2023-03-13T22:24:04.919Z,447.00
2023-03-13T22:25:04.969Z,445.00
2023-03-13T22:26:05.002Z,446.00
2023-03-13T22:27:05.043Z,446.00
2023-03-13T22:28:05.092Z,444.00
2023-03-13T22:29:05.137Z,443.00
2023-03-13T22:30:05.193Z,444.00
2023-03-13T22:31:05.228Z,446.00
2023-03-13T22:32:05.288Z,442.00
2023-03-13T22:33:05.331Z,440.00
2023-03-13T22:34:05.371Z,437.00
2023-03-13T22:35:05.450Z,440.00
2023-03-13T22:36:05.493Z,442.00
2023-03-13T22:37:05.522Z,442.00
2023-03-13T22:39:05.648Z,438.00
2023-03-13T22:40:05.683Z,440.00
2023-03-13T22:43:05.813Z,444.00
2023-03-13T22:44:05.890Z,444.00
2023-03-13T22:45:05.920Z,447.00
2023-03-13T22:46:05.996Z,443.00
2023-03-13T22:47:06.016Z,445.00
2023-03-13T22:48:06.086Z,444.00
2023-03-13T22:49:06.111Z,442.00
2023-03-13T22:50:06.160Z,441.00
2023-03-13T22:51:08.523Z,441.00
2023-03-13T23:00:06.804Z,436.00
2023-03-13T23:01:06.906Z,437.00
2023-03-13T23:02:06.908Z,439.00
2023-03-13T23:03:06.972Z,438.00
2023-03-13T23:04:06.974Z,439.00
2023-03-13T23:05:07.025Z,440.00
2023-03-13T23:06:07.094Z,442.00